Time;durP1;ratioP1;P1;durP2;ratioP2;P2;SDS_P1;SDS_P2;PMS_P1;PMS_P2;Temp;Humidity;BMP_temperature;BMP_pressure;BME280_temperature;BME280_humidity;BME280_pressure;Samples;Min_cycle;Max_cycle;Signal;HPM_P1;HPM_P2
2022/01/30 00:00:54;;;;;;;1.77;1.00;;;7.50;99.90;;;7.14;71.62;98511.28;5129490;27;20757;-39
2022/01/30 00:03:23;;;;;;;1.43;1.13;;;7.40;99.90;;;7.16;71.55;98481.06;5129893;27;20047;-39
2022/01/30 00:05:51;;;;;;;2.60;1.47;;;7.50;99.90;;;7.14;71.86;98484.81;5130849;27;20058;-40
2022/01/30 00:08:18;;;;;;;2.73;1.50;;;7.50;99.90;;;7.15;71.62;98471.41;5129870;27;20373;-39
2022/01/30 00:10:52;;;;;;;1.77;1.67;;;7.50;99.90;;;7.15;71.85;98483.81;5129456;27;20051;-39
2022/01/30 00:13:21;;;;;;;1.92;1.08;;;7.50;99.90;;;7.07;72.34;98495.00;5129889;27;20046;-39
2022/01/30 00:15:52;;;;;;;3.10;1.33;;;7.40;99.90;;;7.12;72.04;98478.78;5129384;27;20060;-40
2022/01/30 00:23:40;;;;;;;1.23;1.10;;;7.40;99.90;;;7.12;72.42;98476.13;5129496;27;20053;-37
2022/01/30 00:26:09;;;;;;;2.57;1.03;;;7.50;99.90;;;7.07;72.63;98471.19;5128375;27;20063;-37
2022/01/30 00:28:37;;;;;;;1.97;1.17;;;7.50;99.90;;;7.17;72.24;98485.38;5130068;27;20041;-37
2022/01/30 00:31:05;;;;;;;1.00;0.90;;;7.50;99.90;;;7.20;71.88;98468.44;5129701;27;20136;-37
2022/01/30 00:33:33;;;;;;;2.37;1.30;;;7.60;99.90;;;7.20;72.02;98453.38;5111022;27;20055;-37
2022/01/30 00:36:01;;;;;;;1.60;1.13;;;7.50;99.90;;;7.22;71.92;98454.09;5129296;27;20055;-37
2022/01/30 00:38:29;;;;;;;1.63;1.30;;;7.60;99.90;;;7.09;72.16;98472.78;5111381;27;20077;-37
2022/01/30 00:40:56;;;;;;;1.63;1.23;;;7.50;99.90;;;7.20;71.87;98463.97;5129207;27;20045;-37
2022/01/30 00:43:24;;;;;;;2.10;1.50;;;7.50;99.90;;;7.13;72.50;98460.09;5128768;27;20051;-37
2022/01/30 00:45:53;;;;;;;2.87;1.30;;;7.50;99.90;;;7.12;72.50;98447.00;5129662;27;20055;-37
2022/01/30 00:48:21;;;;;;;2.43;1.50;;;7.50;99.90;;;7.06;72.79;98459.75;5110018;27;20051;-37
2022/01/30 00:50:50;;;;;;;1.80;1.30;;;7.40;99.90;;;6.99;73.17;98453.25;5112199;27;20051;-37
2022/01/30 00:53:18;;;;;;;2.40;1.27;;;7.40;99.90;;;6.96;73.45;98448.19;5111374;27;20051;-37
2022/01/30 00:55:46;;;;;;;3.67;1.90;;;7.30;99.90;;;6.95;73.74;98454.44;5111357;27;20055;-37
2022/01/30 00:58:14;;;;;;;2.60;1.50;;;7.30;99.90;;;7.00;73.26;98467.31;5129399;27;20073;-37
2022/01/30 01:00:49;;;;;;;1.93;1.30;;;7.40;99.90;;;7.05;73.38;98470.47;5128813;27;20043;-37
2022/01/30 01:03:17;;;;;;;2.43;1.67;;;7.40;99.90;;;6.93;73.55;98482.00;5128282;27;20046;-37
2022/01/30 01:05:46;;;;;;;2.13;1.40;;;7.40;99.90;;;6.92;73.88;98475.00;5129565;27;20051;-39
2022/01/30 01:08:19;;;;;;;1.53;1.43;;;7.30;99.90;;;6.86;74.20;98463.94;5129019;27;20047;-39
2022/01/30 01:10:54;;;;;;;1.70;1.40;;;7.20;99.90;;;6.79;74.60;98467.19;5128432;27;20069;-40
2022/01/30 01:24:04;;;;;;;1.97;1.37;;;7.20;99.90;;;6.81;74.51;98529.63;5128419;27;20059;-39
2022/01/30 01:26:34;;;;;;;1.87;1.40;;;7.20;99.90;;;6.76;74.35;98492.06;5128762;27;20059;-39
2022/01/30 01:29:05;;;;;;;2.03;1.43;;;7.20;99.90;;;6.76;74.58;98492.06;5127993;27;20100;-39
2022/01/30 01:31:33;;;;;;;2.20;1.60;;;7.10;99.90;;;6.81;74.64;98489.91;5128239;27;20381;-39
2022/01/30 01:34:44;;;;;;;2.10;1.70;;;7.10;99.90;;;6.78;74.70;98470.78;5128161;27;20250;-39
2022/01/30 01:36:52;;;;;;;3.57;2.37;;;7.20;99.90;;;6.78;74.90;98460.19;5120665;27;20066;-39
2022/01/30 01:39:19;;;;;;;2.93;1.50;;;7.10;99.90;;;6.81;75.18;98478.50;5126065;27;20069;-39
2022/01/30 01:41:47;;;;;;;2.20;1.50;;;7.10;99.90;;;6.88;75.03;98480.56;5109994;27;20043;-39
2022/01/30 01:44:29;;;;;;;1.80;1.53;;;7.20;99.90;;;6.86;74.71;98477.19;5127755;27;20061;-39
2022/01/30 01:46:57;;;;;;;2.87;1.43;;;7.20;99.90;;;6.86;74.58;98476.31;5109539;27;20047;-39
2022/01/30 01:49:29;;;;;;;2.20;1.23;;;7.20;99.90;;;6.85;74.76;98477.28;5108937;27;20357;-39
2022/01/30 01:52:42;;;;;;;2.07;1.43;;;7.20;99.90;;;6.78;75.36;98489.31;5110117;27;20060;-39
2022/01/30 01:54:55;;;;;;;1.17;0.90;;;7.10;99.90;;;6.62;75.23;98484.34;5122604;27;20054;-39
2022/01/30 01:57:25;;;;;;;1.63;1.03;;;7.00;99.90;;;6.70;75.01;98482.78;5110480;27;20265;-39
2022/01/30 02:00:05;;;;;;;2.67;1.20;;;7.00;99.90;;;6.73;74.78;98479.06;5109251;27;20051;-39
2022/01/30 02:02:41;;;;;;;1.63;1.10;;;7.10;99.90;;;6.70;74.78;98472.19;5130978;27;20047;-39
2022/01/30 02:05:11;;;;;;;1.37;1.07;;;7.10;99.90;;;6.74;74.97;98471.97;5126674;27;20062;-39
2022/01/30 02:10:38;;;;;;;2.67;0.83;;;7.00;99.90;;;6.66;75.16;98491.06;5126274;27;20065;-39
2022/01/30 02:13:33;;;;;;;1.40;0.80;;;7.00;99.90;;;6.58;75.20;98477.59;5109711;27;20043;-39
2022/01/30 02:24:34;;;;;;;1.63;1.30;;;6.80;99.90;;;6.46;75.81;98480.19;5128855;27;20055;-38
2022/01/30 02:27:03;;;;;;;1.73;1.10;;;6.80;99.90;;;6.36;75.49;98479.19;5127395;27;20341;-36
2022/01/30 02:29:32;;;;;;;1.80;1.13;;;6.70;99.90;;;6.50;75.88;98472.88;5108503;27;20253;-36
2022/01/30 02:32:01;;;;;;;2.20;1.60;;;6.80;99.90;;;6.50;75.73;98478.16;5126910;27;20377;-36
2022/01/30 02:34:32;;;;;;;2.00;1.43;;;6.70;99.90;;;6.52;75.05;98456.91;5107396;27;20490;-36
2022/01/30 02:37:00;;;;;;;5.13;1.70;;;6.80;99.90;;;6.43;75.45;98492.81;5126777;27;20042;-36
2022/01/30 02:39:28;;;;;;;2.40;1.50;;;6.70;99.90;;;6.42;75.28;98476.09;5109178;28;20058;-36
2022/01/30 02:41:56;;;;;;;2.93;1.73;;;6.70;99.90;;;6.56;75.48;98475.06;5126851;28;20047;-36
2022/01/30 02:44:31;;;;;;;1.67;1.30;;;6.80;99.90;;;6.52;75.17;98475.41;5123889;28;20054;-36
2022/01/30 02:47:08;;;;;;;3.80;1.20;;;6.70;99.90;;;6.42;75.45;98478.75;5127665;27;20062;-36
2022/01/30 02:50:07;;;;;;;3.63;1.80;;;6.70;99.90;;;6.53;75.21;98459.41;5126507;28;20051;-36
2022/01/30 02:52:35;;;;;;;4.23;2.00;;;6.80;99.90;;;6.40;75.54;98454.22;5109970;28;20061;-36
2022/01/30 02:55:05;;;;;;;3.30;1.50;;;6.70;99.90;;;6.48;74.66;98451.00;5128084;28;20047;-36
2022/01/30 02:57:35;;;;;;;2.00;1.37;;;6.70;99.90;;;6.47;74.96;98457.22;5109940;28;20055;-37
2022/01/30 03:00:09;;;;;;;1.43;1.10;;;6.80;99.90;;;6.54;74.88;98445.22;5125196;28;20077;-36
2022/01/30 03:02:38;;;;;;;1.70;1.23;;;6.80;99.90;;;6.60;74.66;98457.16;5126779;28;20362;-39
2022/01/30 03:05:06;;;;;;;1.40;0.93;;;6.80;99.90;;;6.55;74.42;98477.81;5127386;28;20394;-39
2022/01/30 03:07:35;;;;;;;5.07;1.97;;;6.80;99.90;;;6.51;74.59;98466.59;5128334;27;20222;-36
2022/01/30 03:10:06;;;;;;;3.23;1.60;;;6.80;99.90;;;6.64;74.54;98466.53;5109800;28;20057;-36
2022/01/30 03:12:34;;;;;;;1.33;1.13;;;6.90;99.90;;;6.53;74.51;98456.75;5126293;28;20062;-36
2022/01/30 03:15:04;;;;;;;1.97;1.50;;;6.80;99.90;;;6.47;74.86;98465.16;5108544;28;20512;-36
2022/01/30 03:17:32;;;;;;;2.07;1.40;;;6.80;99.90;;;6.45;74.69;98461.78;5108469;28;20073;-36
2022/01/30 03:20:03;;;;;;;1.97;1.30;;;6.80;99.90;;;6.36;74.90;98481.84;5110929;27;20383;-36
2022/01/30 03:22:31;;;;;;;1.20;1.10;;;6.70;99.90;;;6.36;75.45;98473.03;5113162;27;20051;-36
2022/01/30 03:25:01;;;;;;;1.70;1.20;;;6.70;99.90;;;6.29;74.94;98484.09;5111984;27;20070;-36
2022/01/30 03:27:52;;;;;;;2.03;1.27;;;6.60;99.90;;;6.22;75.27;98505.81;5131386;27;20074;-36
2022/01/30 03:30:30;;;;;;;2.20;1.33;;;6.60;99.90;;;6.25;75.06;98489.72;5112741;27;20392;-36
2022/01/30 03:33:07;;;;;;;2.47;1.00;;;6.60;99.90;;;6.24;75.34;98501.25;5111494;27;20051;-36
2022/01/30 03:35:35;;;;;;;2.10;1.63;;;6.60;99.90;;;6.28;74.94;98510.63;5112170;27;20341;-36
2022/01/30 03:38:04;;;;;;;3.13;1.40;;;6.60;99.90;;;6.26;74.94;98508.13;5131345;27;20543;-36
2022/01/30 03:40:32;;;;;;;2.80;1.60;;;6.60;99.90;;;6.34;74.86;98506.69;5111382;27;20047;-36
2022/01/30 03:43:04;;;;;;;2.57;1.30;;;6.60;99.90;;;6.36;74.70;98525.94;5112344;27;20059;-36
2022/01/30 03:45:32;;;;;;;3.23;1.90;;;6.70;99.90;;;6.38;74.92;98516.09;5112489;27;20063;-36
2022/01/30 03:48:03;;;;;;;2.60;1.17;;;6.70;99.90;;;6.39;74.33;98523.91;5130707;27;20035;-36
2022/01/30 03:50:49;;;;;;;2.27;1.53;;;6.70;99.90;;;6.30;74.62;98524.59;5111313;27;20051;-36
2022/01/30 03:53:17;;;;;;;2.13;1.30;;;6.70;99.90;;;6.44;74.70;98516.50;5111789;27;20057;-37
2022/01/30 03:55:45;;;;;;;3.83;1.63;;;6.70;99.90;;;6.52;74.48;98518.56;5130135;27;20045;-36
2022/01/30 03:58:21;;;;;;;3.53;1.40;;;6.80;99.90;;;6.52;74.37;98523.03;5112373;27;20221;-36
2022/01/30 04:00:49;;;;;;;2.43;1.80;;;6.80;99.90;;;6.53;74.25;98530.00;5111087;27;20053;-36
2022/01/30 04:03:20;;;;;;;2.67;1.47;;;6.80;99.90;;;6.50;74.58;98523.97;5128109;27;20077;-36
2022/01/30 04:05:48;;;;;;;5.50;1.80;;;6.80;99.90;;;6.50;74.55;98516.03;5112211;27;20394;-36
2022/01/30 04:08:16;;;;;;;1.87;1.40;;;6.70;99.90;;;6.41;74.24;98524.66;5112518;27;20077;-36
2022/01/30 04:10:57;;;;;;;4.10;2.20;;;6.60;99.90;;;6.44;74.01;98524.44;5127407;27;20059;-36
2022/01/30 04:14:03;;;;;;;2.53;2.00;;;6.70;99.90;;;6.31;74.71;98535.06;5047269;28;20044;-36
2022/01/30 04:16:47;;;;;;;2.17;1.60;;;6.60;99.90;;;6.20;74.66;98532.34;5046997;28;20041;-36
2022/01/30 04:19:45;;;;;;;4.27;2.30;;;6.50;99.90;;;6.20;73.96;98529.72;5100519;27;20059;-38
2022/01/30 04:22:26;;;;;;;5.90;2.57;;;6.50;99.90;;;6.26;74.72;98545.16;5130050;27;20347;-39
2022/01/30 04:25:17;;;;;;;6.13;2.73;;;6.50;99.90;;;6.19;74.26;98535.13;5112150;27;20072;-38
2022/01/30 04:28:19;;;;;;;5.37;2.00;;;6.40;99.90;;;6.09;74.26;98543.72;5084435;27;20055;-38
2022/01/30 04:31:17;;;;;;;2.90;2.40;;;6.40;99.90;;;6.12;74.40;98542.66;5110392;27;20063;-38
2022/01/30 04:33:54;;;;;;;2.70;2.10;;;6.40;99.90;;;6.15;74.64;98520.47;5112821;27;20051;-38
2022/01/30 04:37:14;;;;;;;5.95;2.35;;;6.30;99.90;;;6.16;74.57;98533.53;5126538;27;20063;-38
2022/01/30 04:40:32;;;;;;;5.57;2.70;;;6.40;99.90;;;6.15;74.18;98533.69;5111354;27;20059;-39
2022/01/30 04:53:12;;;;;;;3.33;2.33;;;6.20;99.90;;;5.94;74.48;98579.16;5132137;27;20066;-39
2022/01/30 05:04:44;;;;;;;5.57;3.93;;;6.20;99.90;;;5.92;74.59;98544.91;5133192;27;20054;-39
2022/01/30 05:10:03;;;;;;;6.83;2.73;;;6.10;99.90;;;5.91;74.63;98543.22;5109915;27;20061;-39
2022/01/30 05:13:02;;;;;;;9.03;2.77;;;6.10;99.90;;;5.83;75.21;98544.72;5055631;27;20069;-39
2022/01/30 05:16:00;;;;;;;6.90;3.57;;;6.00;99.90;;;5.89;74.67;98537.22;5055180;27;20057;-39
2022/01/30 05:18:48;;;;;;;5.30;2.87;;;6.10;99.90;;;5.92;74.77;98544.06;5085610;27;20062;-39
2022/01/30 05:21:39;;;;;;;6.33;3.33;;;6.10;99.90;;;5.77;75.46;98555.72;5127341;27;20063;-39
2022/01/30 05:24:17;;;;;;;6.73;3.10;;;5.90;99.90;;;5.76;75.11;98560.19;5128869;27;20045;-39
2022/01/30 05:27:06;;;;;;;10.10;3.80;;;5.90;99.90;;;5.67;74.74;98568.75;5109009;27;20059;-39
2022/01/30 05:29:58;;;;;;;7.23;3.47;;;5.80;99.90;;;5.79;75.00;98583.72;5120570;27;20085;-40
2022/01/30 05:32:45;;;;;;;9.13;4.10;;;5.90;99.90;;;5.76;75.05;98575.16;5128492;27;20043;-39
2022/01/30 05:35:33;;;;;;;6.10;3.30;;;5.90;99.90;;;5.77;74.66;98582.16;5112485;27;20271;-39
2022/01/30 05:38:23;;;;;;;11.20;4.10;;;5.80;99.90;;;5.82;74.83;98586.16;5085926;27;20055;-39
2022/01/30 05:41:06;;;;;;;;;;;5.90;99.90;;;5.69;74.83;98599.38;5129362;27;20057;-39
2022/01/30 05:43:59;;;;;;;7.10;4.23;;;5.80;99.90;;;5.71;74.90;98589.53;5090374;27;20113;-39
2022/01/30 05:46:52;;;;;;;9.50;3.67;;;5.80;99.90;;;5.66;74.62;98606.66;5110500;27;20059;-39
2022/01/30 05:49:37;;;;;;;8.70;3.60;;;5.70;99.90;;;5.64;75.37;98603.28;5109774;27;20051;-39
2022/01/30 05:52:12;;;;;;;7.70;3.33;;;5.70;99.90;;;5.57;74.63;98609.97;5109272;27;20051;-39
2022/01/30 05:55:06;;;;;;;6.83;4.53;;;5.70;99.90;;;5.57;75.47;98617.91;5115947;27;20039;-39
2022/01/30 05:57:34;;;;;;;7.50;3.37;;;5.70;99.90;;;5.51;75.09;98624.44;5110146;27;20057;-39
2022/01/30 06:00:09;;;;;;;5.83;3.67;;;5.70;99.90;;;5.45;74.86;98625.72;5109944;27;20061;-39
2022/01/30 06:02:49;;;;;;;7.03;3.27;;;5.60;99.90;;;5.54;74.78;98629.50;5132481;27;20039;-39
2022/01/30 06:05:20;;;;;;;7.57;3.40;;;5.70;99.90;;;5.64;74.91;98625.28;5107710;27;20376;-39
2022/01/30 06:07:53;;;;;;;9.57;3.33;;;5.80;99.90;;;5.61;74.53;98638.69;5108933;27;20561;-39
2022/01/30 06:10:25;;;;;;;7.40;2.88;;;5.70;99.90;;;5.57;74.54;98634.59;5108756;28;20054;-39
2022/01/30 06:12:53;;;;;;;9.97;4.27;;;5.70;99.90;;;5.57;73.64;98642.50;5127877;27;20075;-39
2022/01/30 06:15:21;;;;;;;9.53;3.97;;;5.60;99.90;;;5.59;73.70;98645.06;5126981;27;20043;-39
2022/01/30 06:17:56;;;;;;;7.55;3.30;;;5.60;99.90;;;5.62;73.60;98653.63;5108165;27;20051;-39
2022/01/30 06:20:42;;;;;;;6.80;3.07;;;5.70;99.90;;;5.62;73.23;98656.25;5131911;27;20233;-40
2022/01/30 06:23:28;;;;;;;4.13;2.60;;;5.60;99.90;;;5.59;73.10;98663.53;5129955;27;20057;-39
2022/01/30 06:26:29;;;;;;;5.90;2.37;;;5.70;99.90;;;5.53;72.93;98670.09;5092725;27;20055;-39
2022/01/30 06:29:16;;;;;;;7.93;2.80;;;5.50;99.90;;;5.42;72.23;98672.59;5126506;27;20086;-39
2022/01/30 06:32:03;;;;;;;7.47;3.57;;;5.50;99.90;;;5.39;72.84;98672.78;5130339;27;20053;-39
2022/01/30 06:34:54;;;;;;;8.77;3.17;;;5.40;99.90;;;5.46;73.10;98669.63;5107554;27;20666;-40
2022/01/30 06:37:51;;;;;;;5.33;2.20;;;5.40;99.90;;;5.43;73.00;98669.88;5109658;27;20070;-39
2022/01/30 06:40:32;;;;;;;10.10;2.97;;;5.40;99.90;;;5.36;72.19;98676.50;5109193;28;20345;-39
2022/01/30 06:43:29;;;;;;;7.73;3.07;;;5.40;99.90;;;5.39;72.46;98672.78;5089255;28;20271;-40
2022/01/30 06:46:23;;;;;;;9.95;3.05;;;5.40;99.90;;;5.39;72.77;98678.06;5102329;28;20063;-39
2022/01/30 06:49:09;;;;;;;11.13;3.10;;;5.40;99.90;;;5.43;71.99;98685.72;5127838;27;20061;-39
2022/01/30 06:51:56;;;;;;;5.20;2.83;;;5.50;99.90;;;5.41;72.59;98674.41;5132296;27;20057;-39
2022/01/30 06:54:47;;;;;;;5.60;2.83;;;5.40;99.90;;;5.45;72.06;98681.16;5092797;27;20174;-39
2022/01/30 06:57:34;;;;;;;6.73;3.13;;;5.40;99.90;;;5.40;71.96;98680.63;5132446;27;20261;-39
2022/01/30 07:00:20;;;;;;;7.83;3.10;;;5.40;99.90;;;5.41;71.73;98681.47;5134227;27;20366;-39
2022/01/30 07:03:10;;;;;;;9.23;3.53;;;5.40;99.90;;;5.37;72.39;98685.25;5093785;27;20059;-39
2022/01/30 07:05:52;;;;;;;6.90;2.80;;;5.40;99.90;;;5.43;71.64;98688.34;5113775;27;20058;-39
2022/01/30 07:08:34;;;;;;;11.33;3.07;;;5.50;99.90;;;5.44;71.49;98687.38;5113289;27;20069;-39
2022/01/30 07:11:01;;;;;;;10.37;2.90;;;5.50;99.90;;;5.41;71.25;98692.91;5131648;27;20059;-39
2022/01/30 07:13:29;;;;;;;8.30;2.93;;;5.50;99.90;;;5.31;71.95;98697.06;5130815;27;20248;-39
2022/01/30 07:15:57;;;;;;;8.73;2.77;;;5.40;99.90;;;5.37;71.52;98701.97;5132068;27;20287;-39
2022/01/30 07:18:25;;;;;;;8.87;3.03;;;5.30;99.90;;;5.41;71.90;98705.22;5130506;27;20039;-39
2022/01/30 07:20:55;;;;;;;9.13;3.67;;;5.40;99.90;;;5.28;71.33;98708.69;5131037;27;20042;-39
2022/01/30 07:23:22;;;;;;;7.87;3.63;;;5.40;99.90;;;5.28;71.79;98718.41;5129936;27;20050;-39
2022/01/30 07:25:51;;;;;;;7.80;4.93;;;5.40;99.90;;;5.33;72.24;98727.72;5130561;27;20234;-39
2022/01/30 07:28:19;;;;;;;11.97;4.53;;;5.40;99.90;;;5.32;72.14;98728.66;5131015;27;20252;-39
2022/01/30 07:30:47;;;;;;;8.23;3.17;;;5.40;99.90;;;5.31;72.46;98741.97;5132833;27;20043;-40
2022/01/30 07:33:14;;;;;;;12.37;3.33;;;5.40;99.90;;;5.31;71.83;98732.28;5130662;27;20236;-39
2022/01/30 07:35:42;;;;;;;10.80;4.23;;;5.30;99.90;;;5.23;72.72;98745.13;5129866;27;20053;-37
2022/01/30 07:38:12;;;;;;;6.93;4.17;;;5.30;99.90;;;5.13;71.98;98750.16;5130688;27;20039;-37
2022/01/30 07:40:40;;;;;;;5.00;3.70;;;5.20;99.90;;;5.02;72.39;98757.06;5130113;27;20039;-37
2022/01/30 07:43:10;;;;;;;10.33;4.47;;;5.10;99.90;;;5.05;73.00;98764.81;5130902;27;20042;-37
2022/01/30 07:45:49;;;;;;;10.57;4.03;;;5.10;99.90;;;5.09;73.01;98767.13;5112690;27;20059;-37
2022/01/30 07:48:18;;;;;;;9.37;5.10;;;5.20;99.90;;;5.16;73.29;98764.97;5129887;27;20054;-37
2022/01/30 07:50:46;;;;;;;6.83;3.30;;;5.20;99.90;;;5.07;72.77;98765.56;5111526;27;20057;-37
2022/01/30 07:53:13;;;;;;;10.77;3.27;;;5.20;99.90;;;5.01;72.63;98777.34;5130257;27;20061;-39
2022/01/30 07:55:41;;;;;;;9.90;4.33;;;5.10;99.90;;;5.07;72.24;98776.09;5129866;27;20051;-40
2022/01/30 07:58:10;;;;;;;11.20;3.67;;;5.10;99.90;;;5.11;72.49;98777.59;5123198;27;20053;-39
2022/01/30 08:00:39;;;;;;;7.27;3.20;;;5.20;99.90;;;5.15;71.87;98788.81;5104219;28;20058;-39
2022/01/30 08:03:07;;;;;;;6.60;3.60;;;5.20;99.90;;;5.19;71.43;98793.78;5109642;28;20361;-40
2022/01/30 08:05:38;;;;;;;7.43;3.07;;;5.30;99.90;;;5.12;71.87;98811.81;5108627;28;20054;-40
2022/01/30 08:08:06;;;;;;;8.63;3.43;;;5.20;99.90;;;5.10;72.00;98800.53;5109607;28;20703;-39
2022/01/30 08:10:35;;;;;;;7.23;3.60;;;5.20;99.90;;;5.08;71.19;98799.78;5108256;28;20395;-40
2022/01/30 08:13:03;;;;;;;7.53;3.50;;;5.20;99.90;;;5.02;71.00;98813.38;5108156;28;20054;-40
2022/01/30 08:15:31;;;;;;;9.23;3.67;;;5.10;99.90;;;5.02;71.41;98812.50;5106743;28;20062;-39
2022/01/30 08:17:59;;;;;;;10.83;3.40;;;5.10;99.90;;;5.09;71.48;98804.09;5108410;28;20035;-40
2022/01/30 08:20:28;;;;;;;8.40;3.57;;;5.20;99.90;;;5.04;71.80;98807.97;5107637;28;20035;-40
2022/01/30 08:22:56;;;;;;;7.53;2.80;;;5.20;99.90;;;4.96;71.86;98804.97;5105451;28;20050;-40
2022/01/30 08:25:25;;;;;;;6.97;3.30;;;5.10;99.90;;;5.12;71.22;98798.63;5107601;28;20062;-40
2022/01/30 08:27:54;;;;;;;10.03;3.30;;;5.20;99.90;;;5.07;70.87;98799.88;5108191;28;20039;-40
2022/01/30 08:30:22;;;;;;;7.70;4.23;;;5.20;99.90;;;4.99;70.50;98795.06;5109270;28;20047;-40
2022/01/30 08:32:50;;;;;;;10.87;3.87;;;5.10;99.90;;;4.91;70.76;98797.38;5108534;28;20050;-40
2022/01/30 08:35:20;;;;;;;11.47;3.23;;;5.10;99.90;;;4.87;70.29;98786.16;5106963;28;20047;-39
2022/01/30 08:37:48;;;;;;;10.80;4.03;;;5.00;99.90;;;4.87;70.47;98786.16;5107258;28;20051;-40
2022/01/30 08:40:21;;;;;;;9.97;3.33;;;5.00;99.90;;;4.81;70.28;98780.41;5107158;28;20058;-40
2022/01/30 08:42:52;;;;;;;10.20;3.75;;;5.00;99.90;;;4.91;70.38;98782.38;5105797;28;20365;-40
2022/01/30 08:45:21;;;;;;;10.50;3.13;;;5.10;99.90;;;4.87;70.95;98780.88;5107732;28;20050;-40
2022/01/30 08:47:51;;;;;;;11.27;3.33;;;5.10;99.90;;;5.01;69.57;98779.97;5107573;28;20051;-40
2022/01/30 08:50:22;;;;;;;6.53;2.57;;;5.20;99.90;;;5.06;70.21;98777.91;5106935;28;20055;-40
2022/01/30 08:52:50;;;;;;;7.57;3.30;;;5.20;99.90;;;5.02;70.17;98772.91;5107452;28;20380;-40
2022/01/30 08:55:20;;;;;;;11.70;3.80;;;5.20;99.90;;;4.99;69.00;98778.41;5107188;28;20055;-40
2022/01/30 08:57:50;;;;;;;8.23;3.13;;;5.20;99.90;;;4.98;69.82;98784.59;5107279;28;20376;-40
2022/01/30 09:00:20;;;;;;;8.87;3.17;;;5.10;99.90;;;4.92;68.87;98775.28;5105248;28;20214;-37
2022/01/30 09:02:48;;;;;;;6.40;3.33;;;5.10;99.90;;;4.99;69.52;98779.25;5106335;28;20334;-37
2022/01/30 09:05:16;;;;;;;10.07;2.93;;;5.20;99.90;;;4.87;69.64;98775.59;5107028;28;20039;-37
2022/01/30 09:07:43;;;;;;;7.87;2.60;;;5.10;99.90;;;4.96;69.65;98773.31;5107844;28;20040;-37
2022/01/30 09:10:13;;;;;;;10.13;3.10;;;5.10;99.90;;;4.97;69.22;98775.00;5106112;28;20350;-37
2022/01/30 09:12:42;;;;;;;8.07;3.30;;;5.20;99.90;;;5.04;70.03;98773.66;5105831;28;20334;-38
2022/01/30 09:15:13;;;;;;;9.40;3.60;;;5.20;99.90;;;5.01;70.26;98768.59;5105922;28;20064;-37
2022/01/30 09:17:42;;;;;;;7.20;3.40;;;5.30;99.90;;;5.12;70.04;98760.84;5104679;28;20052;-37
2022/01/30 09:20:11;;;;;;;11.23;3.73;;;5.30;99.90;;;5.26;70.02;98757.28;5105255;28;20058;-37
2022/01/30 09:22:40;;;;;;;7.33;3.20;;;5.50;99.90;;;5.35;69.69;98759.34;5105945;28;20043;-37
2022/01/30 09:25:09;;;;;;;6.63;3.13;;;5.60;99.90;;;5.40;69.00;98754.56;5105643;28;20408;-35
2022/01/30 09:27:37;;;;;;;12.93;3.53;;;5.70;99.90;;;5.49;68.70;98755.78;5106177;28;20056;-36
2022/01/30 09:30:07;;;;;;;5.33;2.77;;;5.70;99.90;;;5.59;69.38;98758.66;5107278;28;20051;-36
2022/01/30 09:32:36;;;;;;;8.87;3.00;;;5.80;99.90;;;5.56;69.15;98756.19;5107347;28;20221;-39
2022/01/30 09:35:05;;;;;;;6.30;3.20;;;5.80;99.90;;;5.51;68.99;98765.28;5108919;28;20051;-40
2022/01/30 09:37:33;;;;;;;10.93;4.37;;;5.70;99.90;;;5.64;68.75;98777.66;5107014;28;20047;-39
2022/01/30 09:40:04;;;;;;;9.80;3.40;;;5.80;99.90;;;5.47;69.25;98776.16;5108904;28;20051;-44
2022/01/30 09:42:32;;;;;;;8.73;3.37;;;5.70;99.90;;;5.40;69.42;98770.41;5107984;28;20039;-37
2022/01/30 09:45:04;;;;;;;10.37;4.83;;;5.60;99.90;;;5.63;68.99;98781.25;5107769;28;20043;-39
2022/01/30 09:47:32;;;;;;;17.50;4.97;;;5.80;99.90;;;5.53;68.33;98767.81;5106823;28;20048;-39
2022/01/30 09:50:01;;;;;;;7.97;3.30;;;5.80;99.90;;;5.59;68.79;98763.94;5108297;28;20062;-39
2022/01/30 09:52:29;;;;;;;7.23;3.67;;;5.80;99.90;;;5.58;67.67;98762.22;5090197;28;20353;-37
2022/01/30 09:54:57;;;;;;;13.70;4.03;;;5.80;99.90;;;5.40;67.89;98764.28;5106818;28;20047;-36
2022/01/30 09:57:25;;;;;;;8.03;3.60;;;5.60;99.90;;;5.39;67.72;98763.47;5105735;28;20051;-36
2022/01/30 09:59:56;;;;;;;14.00;3.43;;;5.60;99.90;;;5.44;68.09;98768.41;5105537;28;20358;-37
2022/01/30 10:02:26;;;;;;;11.40;4.37;;;5.70;99.90;;;5.20;66.44;98776.19;5108374;28;20300;-39
2022/01/30 10:04:54;;;;;;;9.23;3.30;;;5.50;99.90;;;5.33;67.68;98785.84;5107726;28;20048;-39
2022/01/30 10:07:54;;;;;;;8.70;3.63;;;5.50;99.90;;;5.28;66.48;98802.91;5105310;28;20069;-39
2022/01/30 10:10:26;;;;;;;8.30;3.07;;;5.50;99.90;;;5.31;66.83;98785.09;5106563;28;20557;-39
2022/01/30 10:13:11;;;;;;;12.67;3.20;;;5.50;99.90;;;5.27;66.90;98794.16;5106803;28;20063;-39
2022/01/30 10:15:56;;;;;;;10.30;3.77;;;5.50;99.90;;;5.25;65.31;98803.97;5088930;28;20055;-38
2022/01/30 10:18:27;;;;;;;15.33;3.07;;;5.50;99.90;;;5.16;64.17;98809.84;5107904;28;20043;-39
2022/01/30 10:20:54;;;;;;;6.97;1.90;;;5.40;95.80;;;5.16;64.16;98801.06;5106215;28;20139;-39
2022/01/30 10:23:36;;;;;;;7.77;3.03;;;5.40;94.80;;;5.12;62.13;98792.50;5106742;28;20047;-39
2022/01/30 10:26:09;;;;;;;12.00;2.57;;;5.40;88.20;;;5.20;62.77;98802.56;5088831;28;20063;-39
2022/01/30 10:28:40;;;;;;;15.32;3.97;;;5.40;87.40;;;5.22;62.58;98811.25;5106590;28;20051;-39
2022/01/30 10:31:12;;;;;;;8.83;2.67;;;5.50;85.00;;;5.25;61.93;98797.81;5105815;28;20047;-39
2022/01/30 10:33:52;;;;;;;5.67;2.50;;;5.50;82.70;;;5.31;60.01;98811.50;5106438;28;20050;-39
2022/01/30 10:36:25;;;;;;;7.33;2.93;;;5.50;79.10;;;5.25;59.66;98805.75;5106857;28;20416;-39
2022/01/30 10:39:10;;;;;;;7.50;2.65;;;5.50;77.30;;;5.30;59.21;98815.06;5088122;28;19930;-39
2022/01/30 10:41:44;;;;;;;6.77;2.30;;;5.60;76.70;;;5.28;60.12;98813.47;5106451;28;20047;-39
2022/01/30 10:44:12;;;;;;;9.40;2.73;;;5.60;75.90;;;5.28;59.42;98810.84;5105920;28;20057;-39
2022/01/30 10:46:48;;;;;;;16.70;2.90;;;5.60;74.90;;;5.45;59.20;98812.38;5107229;28;20342;-40
2022/01/30 10:49:23;;;;;;;8.67;2.80;;;5.70;75.80;;;5.60;60.96;98808.72;5105865;28;20468;-39
2022/01/30 10:52:02;;;;;;;6.87;2.50;;;5.90;77.80;;;5.65;60.03;98793.41;5105480;28;20050;-39
2022/01/30 10:54:33;;;;;;;11.00;2.90;;;6.00;76.00;;;5.78;59.76;98801.38;5105838;28;20237;-40
2022/01/30 10:57:14;;;;;;;9.03;2.70;;;6.00;76.60;;;5.82;58.96;98799.38;5105737;28;20047;-39
2022/01/30 10:59:43;;;;;;;10.80;3.37;;;6.10;74.60;;;5.90;60.22;98797.91;5105742;28;20047;-39
2022/01/30 11:02:16;;;;;;;10.47;2.90;;;6.20;77.00;;;5.99;60.91;98806.19;5106300;28;20253;-39
2022/01/30 11:04:47;;;;;;;7.82;3.10;;;6.20;76.60;;;5.93;59.73;98804.75;5106623;28;20055;-40
2022/01/30 11:07:27;;;;;;;10.73;4.10;;;6.20;75.50;;;6.04;60.40;98791.69;5107462;28;20051;-39
2022/01/30 11:10:08;;;;;;;7.50;3.30;;;6.40;76.80;;;6.03;59.05;98803.25;5105388;28;20135;-40
2022/01/30 11:18:03;;;;;;;5.87;4.03;;;6.30;76.50;;;6.16;60.78;98794.47;5107296;28;20047;-40
2022/01/30 11:20:33;;;;;;;9.73;3.63;;;6.40;76.90;;;5.94;58.40;98797.72;5106850;28;20257;-40
2022/01/30 11:23:08;;;;;;;11.47;3.27;;;6.20;73.10;;;6.00;59.45;98794.69;5106475;28;20051;-40
2022/01/30 11:25:38;;;;;;;12.97;3.93;;;6.20;74.70;;;6.01;58.59;98802.50;5088360;28;20052;-40
2022/01/30 11:28:10;;;;;;;7.57;2.87;;;6.20;72.50;;;5.89;58.08;98793.59;5107103;28;20055;-40
2022/01/30 11:30:52;;;;;;;12.27;3.27;;;6.10;71.30;;;5.97;59.14;98790.44;5105678;28;20059;-40
2022/01/30 11:33:21;;;;;;;10.80;3.40;;;6.20;73.20;;;5.94;59.04;98803.84;5106722;28;20241;-38
2022/01/30 11:35:50;;;;;;;7.90;2.97;;;6.20;73.10;;;5.77;59.71;98797.03;5105077;28;20051;-37
2022/01/30 11:38:18;;;;;;;12.30;3.23;;;6.10;73.80;;;5.96;59.95;98801.97;5108070;28;20047;-38
2022/01/30 11:41:19;;;;;;;5.70;3.47;;;6.20;74.40;;;5.92;58.40;98795.16;5107773;28;20078;-37
2022/01/30 11:44:18;;;;;;;8.20;2.97;;;6.20;71.40;;;5.84;56.39;98793.03;5109480;28;20051;-38
2022/01/30 11:46:52;;;;;;;8.50;2.70;;;6.20;68.50;;;5.99;58.08;98801.78;5110577;28;20057;-37
2022/01/30 11:49:20;;;;;;;7.30;3.17;;;6.20;71.10;;;5.87;55.75;98791.97;5109432;28;20481;-37
2022/01/30 11:51:53;;;;;;;7.43;3.07;;;6.20;67.20;;;5.89;55.79;98783.00;5110321;28;20117;-37
2022/01/30 11:54:48;;;;;;;10.13;3.53;;;6.20;65.90;;;5.92;55.69;98774.84;5109027;28;20059;-37
2022/01/30 11:57:18;;;;;;;12.02;3.85;;;6.20;66.30;;;5.95;55.42;98781.75;5108760;28;20047;-37
2022/01/30 11:59:49;;;;;;;10.13;3.07;;;6.20;66.60;;;5.90;55.72;98765.34;5110281;28;20044;-37